createdAt,value
2019-01-27T07:24:29.963Z,43.17
2019-01-27T07:27:07.896Z,47.47
2019-01-27T07:29:45.584Z,42.13
2019-01-27T07:32:20.124Z,40.23
2019-01-27T07:35:34.851Z,54.83
2019-01-27T07:38:09.735Z,38.60
2019-01-27T07:40:53.979Z,55.00
2019-01-27T07:43:41.049Z,39.77
2019-01-27T07:46:12.953Z,47.93
2019-01-27T07:48:50.858Z,42.93
2019-01-27T07:51:31.804Z,43.03
2019-01-27T07:54:10.777Z,36.13
2019-01-27T07:56:57.436Z,32.60
2019-01-27T07:59:39.875Z,42.53
2019-01-27T08:02:17.195Z,46.80
2019-01-27T08:04:50.239Z,38.67
2019-01-27T08:07:25.247Z,43.30
2019-01-27T08:09:57.122Z,47.90
2019-01-27T08:12:34.974Z,35.43
2019-01-27T08:15:10.605Z,27.63
2019-01-27T08:17:43.203Z,27.93
2019-01-27T08:20:36.132Z,28.30
2019-01-27T08:23:33.092Z,28.23
2019-01-27T08:26:24.763Z,24.23
2019-01-27T08:28:58.723Z,27.30
2019-01-27T08:31:31.682Z,31.23
2019-01-27T08:34:11.143Z,26.73
2019-01-27T08:36:44.201Z,28.07
2019-01-27T08:39:22.097Z,27.53
2019-01-27T08:41:55.542Z,30.93
2019-01-27T08:44:30.364Z,26.67
2019-01-27T08:47:00.584Z,29.17
2019-01-27T08:49:30.816Z,32.90
2019-01-27T08:52:01.030Z,31.10
2019-01-27T08:54:31.257Z,28.70
2019-01-27T08:57:01.486Z,26.57
2019-01-27T08:59:33.779Z,25.80
2019-01-27T09:02:17.694Z,41.90
2019-01-27T09:04:50.048Z,30.93
2019-01-27T09:07:44.223Z,39.77
2019-01-27T09:10:24.589Z,40.17
2019-01-27T09:13:11.305Z,38.97
2019-01-27T09:16:03.250Z,35.03
2019-01-27T09:18:37.148Z,35.00
2019-01-27T09:21:15.888Z,29.40
2019-01-27T09:24:04.459Z,23.43
2019-01-27T09:26:37.679Z,30.37
2019-01-27T09:29:10.800Z,30.90
2019-01-27T09:32:01.870Z,42.43
2019-01-27T09:34:42.128Z,39.13
2019-01-27T09:37:19.657Z,35.03
2019-01-27T09:39:56.213Z,41.23
2019-01-27T09:42:46.308Z,43.63
2019-01-27T09:45:33.764Z,42.87
2019-01-27T09:48:24.238Z,44.10
2019-01-27T09:51:03.558Z,43.23
2019-01-27T09:53:45.237Z,94.20
2019-01-27T09:56:17.143Z,65.50
2019-01-27T09:58:53.576Z,70.13
2019-01-27T10:01:28.454Z,51.27
2019-01-27T10:04:19.269Z,81.00
2019-01-27T10:06:57.319Z,48.50
2019-01-27T10:09:35.940Z,42.10
2019-01-27T10:12:18.213Z,64.53
2019-01-27T10:14:53.387Z,49.27
2019-01-27T10:17:29.366Z,43.07
2019-01-27T10:20:02.161Z,52.30
2019-01-27T10:22:52.178Z,44.97
2019-01-27T10:25:31.512Z,35.83
2019-01-27T10:28:05.928Z,39.33
2019-01-27T10:30:47.587Z,48.27
2019-01-27T10:33:37.461Z,74.27
2019-01-27T10:36:28.396Z,98.20
2019-01-27T10:39:00.916Z,90.37
2019-01-27T10:41:34.511Z,94.40
2019-01-27T10:44:25.470Z,184.00
2019-01-27T10:47:08.065Z,81.33
2019-01-27T10:49:45.220Z,100.27
2019-01-27T10:52:34.431Z,142.73
2019-01-27T10:55:19.518Z,140.23
2019-01-27T10:58:01.318Z,87.37
2019-01-27T11:00:47.253Z,56.23
2019-01-27T11:03:42.145Z,52.67
2019-01-27T11:06:22.158Z,86.10
2019-01-27T11:08:58.938Z,77.03
2019-01-27T11:11:32.249Z,79.33
2019-01-27T11:14:13.879Z,55.43
2019-01-27T11:16:49.043Z,71.30
2019-01-27T11:19:28.992Z,56.87
2019-01-27T11:22:14.132Z,69.23
2019-01-27T11:25:05.160Z,95.47
2019-01-27T11:27:57.667Z,57.37
2019-01-27T11:30:33.609Z,201.97
2019-01-27T11:33:37.461Z,78.93
2019-01-27T11:36:18.773Z,127.43
2019-01-27T11:39:00.961Z,55.40
2019-01-27T11:41:36.624Z,42.47
2019-01-27T11:44:08.675Z,39.63
2019-01-27T11:46:41.677Z,42.33
2019-01-27T11:49:20.926Z,43.50
2019-01-27T11:51:52.796Z,43.27
2019-01-27T11:54:24.249Z,54.57
2019-01-27T11:56:55.687Z,67.53
2019-01-27T11:59:25.896Z,84.50
2019-01-27T12:01:56.135Z,69.43
2019-01-27T12:04:28.008Z,64.60
2019-01-27T12:06:58.423Z,66.43
2019-01-27T12:09:28.654Z,55.47
2019-01-27T12:12:00.091Z,53.30
2019-01-27T12:14:30.335Z,41.67
2019-01-27T12:17:01.761Z,47.30
2019-01-27T12:19:31.969Z,58.40
2019-01-27T12:22:02.210Z,80.40
2019-01-27T12:24:32.418Z,68.73
2019-01-27T12:27:02.661Z,78.73
2019-01-27T12:29:34.509Z,85.63
2019-01-27T12:32:05.554Z,66.50
2019-01-27T12:34:38.097Z,57.87
2019-01-27T12:37:08.474Z,51.53
2019-01-27T12:39:39.896Z,56.90
2019-01-27T12:42:10.163Z,105.67
2019-01-27T12:44:41.592Z,140.03
2019-01-27T12:47:14.269Z,136.40
2019-01-27T12:49:44.505Z,107.67
2019-01-27T12:52:15.946Z,53.23
2019-01-27T12:54:46.165Z,120.73
2019-01-27T12:57:17.638Z,88.97
2019-01-27T12:59:49.041Z,66.23
2019-01-27T13:02:19.282Z,144.93
2019-01-27T13:04:49.487Z,91.33
2019-01-27T13:07:19.731Z,108.57
2019-01-27T13:09:51.173Z,97.17
2019-01-27T13:12:21.702Z,97.53
2019-01-27T13:14:51.927Z,88.73
2019-01-27T13:17:22.162Z,135.97
2019-01-27T13:19:53.907Z,96.27
2019-01-27T13:22:24.476Z,105.17
2019-01-27T13:24:55.879Z,71.20
2019-01-27T13:27:28.446Z,64.23
2019-01-27T13:29:59.718Z,63.77
2019-01-27T13:32:30.875Z,66.17
2019-01-27T13:35:01.105Z,86.30
2019-01-27T13:37:32.576Z,79.00
2019-01-27T13:40:24.450Z,77.60
2019-01-27T13:42:55.765Z,69.37
2019-01-27T13:45:28.853Z,98.43
2019-01-27T13:47:59.342Z,144.77
2019-01-27T13:50:31.287Z,130.00
2019-01-27T13:53:01.530Z,116.53
2019-01-27T13:55:34.481Z,61.77
2019-01-27T13:58:04.907Z,90.97
2019-01-27T14:00:40.562Z,189.97
2019-01-27T14:03:11.041Z,137.77
2019-01-27T14:05:43.393Z,191.83
2019-01-27T14:08:16.083Z,139.40
2019-01-27T14:10:46.329Z,81.47
2019-01-27T14:13:19.282Z,117.63
2019-01-27T14:15:51.056Z,144.83
2019-01-27T14:18:22.501Z,64.50
2019-01-27T14:20:54.413Z,60.73
2019-01-27T14:23:26.430Z,62.80
2019-01-27T14:25:59.206Z,64.53
2019-01-27T14:28:29.587Z,64.17
2019-01-27T14:31:01.019Z,55.00
2019-01-27T14:33:32.156Z,47.77
2019-01-27T14:36:03.589Z,42.20
2019-01-27T14:38:33.839Z,54.53
2019-01-27T14:41:06.865Z,33.20
2019-01-27T14:43:39.303Z,42.20
2019-01-27T14:46:09.663Z,44.23
2019-01-27T14:48:40.862Z,51.43
2019-01-27T14:51:11.362Z,60.17
2019-01-27T14:53:43.158Z,35.73
2019-01-27T14:56:14.588Z,50.03
2019-01-27T14:58:47.740Z,53.23
2019-01-27T15:01:18.143Z,63.00
2019-01-27T15:03:48.627Z,52.47
2019-01-27T15:06:20.007Z,96.73
2019-01-27T15:08:50.326Z,89.03
2019-01-27T15:11:22.688Z,70.70
2019-01-27T15:13:53.239Z,104.00
2019-01-27T15:16:23.498Z,114.43
2019-01-27T15:18:54.280Z,103.67
2019-01-27T15:21:24.542Z,147.00
2019-01-27T15:23:55.095Z,176.40
2019-01-27T15:26:25.550Z,136.57
2019-01-27T15:28:55.854Z,153.77
2019-01-27T15:31:26.284Z,119.73
2019-01-27T15:33:58.083Z,117.57
2019-01-27T15:36:32.117Z,111.47
2019-01-27T15:39:04.188Z,156.33
2019-01-27T15:41:37.042Z,92.33
2019-01-27T15:44:07.382Z,102.57
2019-01-27T15:46:39.929Z,122.67
2019-01-27T15:49:11.408Z,164.93
2019-01-27T15:51:44.465Z,129.60
2019-01-27T15:54:14.951Z,74.97
2019-01-27T15:56:45.719Z,96.40
2019-01-27T15:59:17.161Z,131.07
2019-01-27T16:01:48.826Z,135.83
2019-01-27T16:04:20.859Z,92.30
2019-01-27T16:06:52.310Z,60.70
2019-01-27T16:09:22.660Z,62.00
2019-01-27T16:11:54.560Z,123.63
2019-01-27T16:14:25.301Z,141.90
2019-01-27T16:16:55.524Z,207.13
2019-01-27T16:19:26.954Z,61.57
2019-01-27T16:21:58.397Z,88.50
2019-01-27T16:24:30.005Z,82.90
2019-01-27T16:27:02.584Z,157.03
2019-01-27T16:29:38.414Z,75.37
2019-01-27T16:32:10.483Z,68.60
2019-01-27T16:34:42.262Z,59.00
2019-01-27T16:37:12.631Z,96.50
2019-01-27T16:39:44.080Z,164.60
2019-01-27T16:42:14.328Z,132.97
2019-01-27T16:44:44.811Z,80.47
2019-01-27T16:47:18.916Z,147.87
2019-01-27T16:49:47.410Z,174.53
2019-01-27T16:52:18.930Z,228.10
2019-01-27T16:54:50.316Z,84.47
2019-01-27T16:57:21.897Z,132.40
2019-01-27T16:59:52.304Z,112.60
2019-01-27T17:02:22.578Z,175.83
2019-01-27T17:04:55.615Z,87.17
2019-01-27T17:07:27.770Z,83.70
2019-01-27T17:09:59.358Z,106.63
2019-01-27T17:12:29.901Z,97.80
2019-01-27T17:15:01.325Z,64.23
2019-01-27T17:17:33.078Z,57.90
2019-01-27T17:20:04.675Z,76.80
2019-01-27T17:22:45.036Z,60.27
2019-01-27T17:25:17.134Z,51.90
2019-01-27T17:27:50.529Z,64.30
2019-01-27T17:30:23.035Z,91.27
2019-01-27T17:32:56.736Z,121.40
2019-01-27T17:35:35.823Z,107.57
2019-01-27T17:38:11.134Z,115.80
2019-01-27T17:40:44.181Z,111.63
2019-01-27T17:43:16.173Z,142.20
2019-01-27T17:45:46.578Z,88.23
2019-01-27T17:48:18.520Z,81.70
2019-01-27T17:50:53.838Z,51.23
2019-01-27T17:53:24.312Z,47.10
2019-01-27T17:55:57.306Z,52.63
2019-01-27T17:58:45.966Z,52.70
2019-01-27T18:01:35.674Z,77.87
2019-01-27T18:04:16.333Z,64.43
2019-01-27T18:07:05.523Z,57.17
2019-01-27T18:09:54.544Z,66.97
2019-01-27T18:12:32.560Z,53.97
2019-01-27T18:15:04.635Z,64.13
2019-01-27T18:17:35.056Z,67.13
2019-01-27T18:20:10.059Z,81.40
2019-01-27T18:22:42.034Z,71.20
2019-01-27T18:25:17.537Z,73.37
2019-01-27T18:27:49.383Z,46.90
2019-01-27T18:30:21.720Z,53.10
2019-01-27T18:32:52.041Z,45.23
2019-01-27T18:35:23.508Z,39.03
2019-01-27T18:37:55.238Z,107.87
2019-01-27T18:40:25.790Z,54.13
2019-01-27T18:42:57.271Z,51.27
2019-01-27T18:45:32.717Z,37.37
2019-01-27T18:48:09.909Z,50.53
2019-01-27T18:50:42.513Z,73.50
2019-01-27T18:53:17.681Z,64.67
2019-01-27T18:56:01.485Z,65.50
2019-01-27T18:58:33.391Z,75.70
2019-01-27T19:01:10.011Z,271.50
2019-01-27T19:03:47.032Z,301.83
2019-01-27T19:06:33.616Z,80.40
2019-01-27T19:09:10.034Z,115.90
2019-01-27T19:11:47.938Z,126.73
2019-01-27T19:14:22.802Z,241.23
2019-01-27T19:16:57.665Z,125.13
2019-01-27T19:19:35.482Z,65.43
2019-01-27T19:22:07.803Z,40.63
2019-01-27T19:24:42.727Z,34.63
2019-01-27T19:27:32.396Z,75.20
2019-01-27T19:30:05.524Z,44.73
2019-01-27T19:32:37.766Z,61.53
2019-01-27T19:35:20.214Z,74.37
2019-01-27T19:37:56.331Z,67.53
2019-01-27T19:40:29.411Z,53.80
2019-01-27T19:43:07.490Z,56.47
2019-01-27T19:45:44.953Z,48.37
2019-01-27T19:48:34.767Z,45.40
2019-01-27T19:51:22.930Z,58.80
2019-01-27T19:54:01.020Z,42.10
2019-01-27T19:56:39.054Z,41.17
2019-01-27T19:59:19.931Z,40.47
2019-01-27T20:01:59.267Z,45.43
2019-01-27T20:04:32.305Z,57.57
2019-01-27T20:07:06.237Z,53.10
2019-01-27T20:09:39.891Z,48.13
2019-01-27T20:12:16.100Z,38.07
2019-01-27T20:14:54.368Z,38.70
2019-01-27T20:17:27.032Z,48.20
2019-01-27T20:20:00.272Z,53.93
2019-01-27T20:22:46.945Z,45.63
2019-01-27T20:25:22.002Z,39.97
2019-01-27T20:28:03.362Z,115.30
2019-01-27T20:30:43.489Z,82.63
2019-01-27T20:33:17.111Z,90.73
2019-01-27T20:35:49.035Z,67.10
2019-01-27T20:38:22.739Z,44.70
2019-01-27T20:40:59.970Z,46.47
2019-01-27T20:43:39.314Z,59.00
2019-01-27T20:46:18.303Z,46.07
2019-01-27T20:48:55.681Z,58.40
2019-01-27T20:51:32.253Z,48.77
2019-01-27T20:54:22.226Z,35.67
2019-01-27T20:56:56.839Z,46.37
2019-01-27T20:59:29.271Z,52.50
2019-01-27T21:02:07.208Z,39.10
2019-01-27T21:04:56.685Z,41.10
2019-01-27T21:07:29.686Z,52.80
2019-01-27T21:10:05.748Z,43.17
2019-01-27T21:12:40.887Z,40.53
2019-01-27T21:15:34.178Z,41.37
2019-01-27T21:18:09.042Z,44.87
2019-01-27T21:20:39.438Z,47.30
2019-01-27T21:23:12.555Z,41.60
2019-01-27T21:25:45.502Z,44.20
2019-01-27T21:28:17.493Z,37.27
2019-01-27T21:30:51.799Z,37.57
2019-01-27T21:33:24.077Z,32.53
2019-01-27T21:35:55.516Z,31.93
2019-01-27T21:38:28.234Z,32.37
2019-01-27T21:40:59.917Z,38.40
2019-01-27T21:43:33.322Z,35.60
2019-01-27T21:46:06.794Z,39.27
2019-01-27T21:48:37.042Z,41.83
2019-01-27T21:51:10.344Z,36.00
2019-01-27T21:53:42.515Z,43.17
2019-01-27T21:56:16.258Z,38.43
2019-01-27T21:58:46.829Z,31.60
2019-01-27T22:01:18.605Z,57.53
2019-01-27T22:03:50.259Z,52.50
2019-01-27T22:06:23.673Z,36.33
2019-01-27T22:08:53.886Z,37.43
2019-01-27T22:11:24.186Z,41.80
2019-01-27T22:13:59.906Z,37.27
2019-01-27T22:16:30.419Z,35.50
2019-01-27T22:19:00.684Z,34.23
2019-01-27T22:21:31.161Z,37.03
2019-01-27T22:24:02.593Z,32.83
2019-01-27T22:26:32.848Z,31.80
2019-01-27T22:29:03.394Z,44.20
2019-01-27T22:31:33.878Z,42.73
2019-01-27T22:34:04.377Z,37.27
2019-01-27T22:36:34.703Z,38.93
2019-01-27T22:39:09.750Z,41.17
2019-01-27T22:41:41.343Z,50.90
2019-01-27T22:44:11.843Z,50.47
2019-01-27T22:46:42.524Z,33.20
2019-01-27T22:49:14.376Z,52.60
2019-01-27T22:51:44.630Z,48.33
2019-01-27T22:54:15.285Z,55.57
2019-01-27T22:56:46.445Z,48.73
2019-01-27T22:59:17.154Z,45.77
2019-01-27T23:01:49.319Z,47.27
2019-01-27T23:04:19.729Z,36.00
2019-01-27T23:06:51.119Z,48.40
2019-01-27T23:09:22.562Z,69.23
2019-01-27T23:11:54.024Z,80.97
2019-01-27T23:14:25.443Z,86.03
2019-01-27T23:16:55.686Z,56.40
2019-01-27T23:19:25.910Z,57.80
2019-01-27T23:21:57.369Z,50.37
2019-01-27T23:24:28.788Z,52.13
2019-01-27T23:26:59.041Z,40.03
2019-01-27T23:29:29.255Z,39.23
2019-01-27T23:31:59.484Z,39.60
2019-01-27T23:34:30.898Z,37.97
2019-01-27T23:37:01.145Z,37.23
2019-01-27T23:39:31.368Z,41.73
2019-01-27T23:42:02.518Z,42.43
2019-01-27T23:44:32.739Z,41.57
2019-01-27T23:47:03.002Z,38.47
2019-01-27T23:49:34.386Z,40.27
2019-01-27T23:52:04.611Z,36.63
2019-01-27T23:54:35.758Z,39.90
2019-01-27T23:57:05.992Z,38.37
2019-01-27T23:59:36.202Z,37.80
